Time;durP1;ratioP1;P1;durP2;ratioP2;P2;SDS_P1;SDS_P2;PMS_P1;PMS_P2;Temp;Humidity;BMP_temperature;BMP_pressure;BME280_temperature;BME280_humidity;BME280_pressure;Samples;Min_cycle;Max_cycle;Signal;HPM_P1;HPM_P2
2023/04/14 00:02:07;;;;;;;;;;;;;;;9.94;68.77;100133.91;7358137;19;20286;-61
2023/04/14 00:04:36;;;;;;;;;;;;;;;9.92;67.86;100126.19;7358489;19;20340;-61
2023/04/14 00:07:03;;;;;;;;;;;;;;;9.92;68.79;100126.19;7356312;19;19926;-63
2023/04/14 00:09:30;;;;;;;;;;;;;;;9.88;68.67;100132.78;7358398;19;19919;-59
2023/04/14 00:11:56;;;;;;;;;;;;;;;9.85;69.00;100126.03;7359378;19;19919;-60
2023/04/14 00:14:23;;;;;;;;;;;;;;;9.84;69.34;100126.22;7358738;19;19919;-59
2023/04/14 00:16:50;;;;;;;;;;;;;;;9.81;67.88;100121.28;7356641;19;19922;-60
2023/04/14 00:19:17;;;;;;;;;;;;;;;9.77;68.20;100115.53;7356908;19;19919;-63
2023/04/14 00:21:44;;;;;;;;;;;;;;;9.77;68.45;100123.41;7357212;19;19922;-61
2023/04/14 00:24:11;;;;;;;;;;;;;;;9.74;67.23;100115.06;7358009;19;19923;-61
2023/04/14 00:26:37;;;;;;;;;;;;;;;9.68;66.47;100127.03;7357499;19;19955;-66
2023/04/14 00:29:05;;;;;;;;;;;;;;;9.68;68.45;100116.53;7358279;19;19922;-66
2023/04/14 00:31:31;;;;;;;;;;;;;;;9.68;68.07;100116.53;7357331;19;19919;-65
2023/04/14 00:33:58;;;;;;;;;;;;;;;9.68;68.20;100115.72;7357701;19;20598;-65
2023/04/14 00:36:25;;;;;;;;;;;;;;;9.69;68.83;100114.72;7355222;19;19926;-66
2023/04/14 00:38:52;;;;;;;;;;;;;;;9.67;68.05;100107.00;7356088;19;19911;-65
2023/04/14 00:41:19;;;;;;;;;;;;;;;9.64;67.24;100107.34;7356798;19;19915;-65
2023/04/14 00:43:46;;;;;;;;;;;;;;;9.60;66.82;100106.00;7360274;19;20356;-65
2023/04/14 00:46:15;;;;;;;;;;;;;;;9.58;67.39;100110.63;7357853;19;19918;-66
2023/04/14 00:48:43;;;;;;;;;;;;;;;9.55;69.42;100103.06;7356618;19;19923;-66
2023/04/14 00:51:10;;;;;;;;;;;;;;;9.53;68.73;100107.66;7355492;19;20797;-63
2023/04/14 00:53:38;;;;;;;;;;;;;;;9.53;69.53;100102.41;7361208;19;20280;-61
2023/04/14 00:56:06;;;;;;;;;;;;;;;9.53;69.56;100105.03;7361570;19;21288;-62
2023/04/14 00:58:34;;;;;;;;;;;;;;;9.52;70.00;100111.28;7362560;19;19922;-62
2023/04/14 01:01:01;;;;;;;;;;;;;;;9.53;70.09;100107.66;7361752;19;20762;-63
2023/04/14 01:03:28;;;;;;;;;;;;;;;9.53;70.68;100104.22;7360618;19;20408;-63
2023/04/14 01:05:55;;;;;;;;;;;;;;;9.52;72.02;100103.41;7363681;19;20348;-66
2023/04/14 01:08:22;;;;;;;;;;;;;;;9.53;72.25;100104.22;7365437;19;20419;-62
2023/04/14 01:10:59;;;;;;;;;;;;;;;9.51;72.44;100093.03;7363885;19;20185;-63
2023/04/14 01:13:34;;;;;;;;;;;;;;;9.49;73.00;100095.88;7362926;19;19922;-63
2023/04/14 01:16:14;;;;;;;;;;;;;;;9.48;73.42;100096.00;7355120;19;19951;-63
2023/04/14 01:18:51;;;;;;;;;;;;;;;9.45;74.62;100091.91;7360955;19;19914;-62
2023/04/14 01:21:21;;;;;;;;;;;;;;;9.43;75.27;100081.56;7358311;19;19951;-61
2023/04/14 01:24:02;;;;;;;;;;;;;;;9.41;75.87;100083.53;7363637;19;19927;-62
2023/04/14 01:26:32;;;;;;;;;;;;;;;9.41;76.25;100083.53;7362759;19;20404;-63
2023/04/14 01:29:08;;;;;;;;;;;;;;;9.38;75.94;100076.00;7364311;19;19911;-63
2023/04/14 01:31:40;;;;;;;;;;;;;;;9.36;76.43;100077.13;7363248;19;19922;-63
2023/04/14 01:34:13;;;;;;;;;;;;;;;9.35;77.57;100078.94;7362797;19;19919;-63
2023/04/14 01:36:45;;;;;;;;;;;;;;;9.36;77.75;100075.31;7362976;19;19922;-63
2023/04/14 01:39:18;;;;;;;;;;;;;;;9.37;78.69;100079.59;7363269;19;19930;-62
2023/04/14 01:41:48;;;;;;;;;;;;;;;9.33;78.53;100069.59;7362475;19;19943;-63
2023/04/14 01:44:17;;;;;;;;;;;;;;;9.34;78.51;100068.63;7362125;19;21494;-62
2023/04/14 01:46:45;;;;;;;;;;;;;;;9.32;78.17;100066.16;7361977;19;20036;-63
2023/04/14 01:49:12;;;;;;;;;;;;;;;9.33;79.59;100065.16;7363420;19;20479;-66
2023/04/14 01:51:41;;;;;;;;;;;;;;;9.32;79.48;100060.06;7356540;19;20097;-64
2023/04/14 01:54:10;;;;;;;;;;;;;;;9.32;79.46;100057.44;7363963;19;20676;-62
2023/04/14 01:56:38;;;;;;;;;;;;;;;9.33;79.88;100059.91;7363692;19;20757;-62
2023/04/14 01:59:05;;;;;;;;;;;;;;;9.33;80.62;100054.66;7361258;19;20147;-61
2023/04/14 02:01:33;;;;;;;;;;;;;;;9.32;80.34;100052.19;7358290;19;19923;-63
2023/04/14 02:04:01;;;;;;;;;;;;;;;9.29;80.51;100053.34;7361274;19;19951;-62
2023/04/14 02:06:30;;;;;;;;;;;;;;;9.29;80.98;100052.53;7361353;19;20264;-63
2023/04/14 02:09:00;;;;;;;;;;;;;;;9.30;82.02;100051.53;7359966;19;19991;-62
2023/04/14 02:11:29;;;;;;;;;;;;;;;9.30;82.72;100054.97;7359796;19;19925;-62
2023/04/14 02:13:57;;;;;;;;;;;;;;;9.31;83.29;100051.38;7363163;19;19919;-62
2023/04/14 02:16:24;;;;;;;;;;;;;;;9.29;83.12;100042.88;7362586;19;20288;-63
2023/04/14 02:18:52;;;;;;;;;;;;;;;9.29;83.41;100050.75;7359015;19;19975;-63
2023/04/14 02:21:19;;;;;;;;;;;;;;;9.30;82.92;100047.09;7360650;19;19922;-64
2023/04/14 02:23:46;;;;;;;;;;;;;;;9.31;83.22;100046.13;7361470;19;20432;-63
2023/04/14 02:26:15;;;;;;;;;;;;;;;9.34;84.18;100042.38;7358703;19;20242;-62
2023/04/14 02:28:48;;;;;;;;;;;;;;;9.38;84.95;100052.38;7359190;19;19919;-62
2023/04/14 02:31:20;;;;;;;;;;;;;;;9.36;84.61;100046.44;7356660;19;19939;-63
2023/04/14 02:33:49;;;;;;;;;;;;;;;9.39;85.59;100040.06;7359052;19;20435;-62
2023/04/14 02:36:23;;;;;;;;;;;;;;;9.38;85.03;100038.44;7359929;19;19915;-63
2023/04/14 02:38:59;;;;;;;;;;;;;;;9.36;84.89;100041.19;7359443;19;19919;-63
2023/04/14 02:41:28;;;;;;;;;;;;;;;9.34;84.48;100043.19;7362911;19;20477;-62
2023/04/14 02:43:56;;;;;;;;;;;;;;;9.35;85.29;100036.94;7360902;19;19940;-64
2023/04/14 02:46:25;;;;;;;;;;;;;;;9.37;86.00;100034.16;7358058;19;19914;-62
2023/04/14 02:48:53;;;;;;;;;;;;;;;9.36;85.69;100033.31;7361599;19;20435;-60
2023/04/14 02:51:21;;;;;;;;;;;;;;;9.36;85.95;100032.50;7358988;19;20297;-63
2023/04/14 02:53:48;;;;;;;;;;;;;;;9.36;85.98;100027.25;7357417;19;20007;-62
2023/04/14 02:56:15;;;;;;;;;;;;;;;9.36;85.53;100022.81;7360156;19;19922;-62
2023/04/14 02:58:42;;;;;;;;;;;;;;;9.35;85.82;100028.22;7358101;19;19918;-62
2023/04/14 03:01:09;;;;;;;;;;;;;;;9.37;87.15;100026.28;7358778;19;19926;-61
2023/04/14 03:03:37;;;;;;;;;;;;;;;9.38;87.69;100020.88;7360149;19;20013;-62
2023/04/14 03:06:05;;;;;;;;;;;;;;;9.38;87.52;100022.66;7356532;19;19918;-62
2023/04/14 03:08:33;;;;;;;;;;;;;;;9.38;88.30;100014.78;7358866;19;19914;-63
2023/04/14 03:11:01;;;;;;;;;;;;;;;9.38;88.36;100015.63;7357795;19;19925;-61
2023/04/14 03:13:29;;;;;;;;;;;;;;;9.40;88.69;100018.06;7360688;19;20084;-62
2023/04/14 03:15:57;;;;;;;;;;;;;;;9.36;88.29;100011.50;7357377;19;19922;-63
2023/04/14 03:18:25;;;;;;;;;;;;;;;9.34;87.90;100003.81;7356703;19;21606;-63
2023/04/14 03:20:54;;;;;;;;;;;;;;;9.33;88.36;99996.91;7356476;19;19961;-65
2023/04/14 03:23:23;;;;;;;;;;;;;;;9.34;88.79;99998.56;7360509;19;20486;-63
2023/04/14 03:25:50;;;;;;;;;;;;;;;9.37;89.77;100005.28;7360180;19;21540;-64
2023/04/14 03:28:18;;;;;;;;;;;;;;;9.37;89.32;99997.41;7358415;19;19915;-62
2023/04/14 03:30:48;;;;;;;;;;;;;;;9.37;89.50;99998.22;7356778;19;20337;-63
2023/04/14 03:33:18;;;;;;;;;;;;;;;9.35;89.17;100000.19;7356541;19;19944;-61
2023/04/14 03:35:45;;;;;;;;;;;;;;;9.34;89.40;99995.13;7356563;19;20308;-62
2023/04/14 03:38:15;;;;;;;;;;;;;;;9.35;89.35;99988.84;7356039;19;20333;-62
2023/04/14 03:40:45;;;;;;;;;;;;;;;9.37;90.26;99987.72;7356296;19;19922;-62
2023/04/14 03:43:18;;;;;;;;;;;;;;;9.38;90.23;99988.53;7361986;19;19923;-61
2023/04/14 03:45:47;;;;;;;;;;;;;;;9.39;90.43;99984.94;7359820;19;19919;-62
2023/04/14 03:48:17;;;;;;;;;;;;;;;9.38;89.79;99984.13;7356331;19;20353;-62
2023/04/14 03:50:45;;;;;;;;;;;;;;;9.37;89.54;99979.03;7358604;19;19923;-62
2023/04/14 03:53:13;;;;;;;;;;;;;;;9.38;89.96;99971.00;7359296;19;19923;-62
2023/04/14 03:55:42;;;;;;;;;;;;;;;9.39;90.42;99975.25;7356369;19;19918;-62
2023/04/14 03:58:10;;;;;;;;;;;;;;;9.37;90.47;99974.59;7359281;19;19922;-61
2023/04/14 04:00:37;;;;;;;;;;;;;;;9.36;90.49;99972.13;7358355;19;19923;-66
2023/04/14 04:03:05;;;;;;;;;;;;;;;9.34;90.49;99969.69;7356885;19;20163;-63
2023/04/14 04:05:33;;;;;;;;;;;;;;;9.34;90.22;99971.50;7357967;19;19923;-64
2023/04/14 04:08:02;;;;;;;;;;;;;;;9.35;90.55;99970.47;7358866;19;19957;-62
2023/04/14 04:10:31;;;;;;;;;;;;;;;9.38;91.03;99970.16;7358278;19;19968;-62
2023/04/14 04:12:59;;;;;;;;;;;;;;;9.41;91.25;99968.03;7360868;19;19929;-63
2023/04/14 04:15:27;;;;;;;;;;;;;;;9.42;91.23;99963.59;7359397;19;19923;-64
2023/04/14 04:17:54;;;;;;;;;;;;;;;9.43;91.18;99957.38;7355029;19;19939;-61
2023/04/14 04:20:22;;;;;;;;;;;;;;;9.43;91.17;99959.97;7357944;19;19935;-63
2023/04/14 04:22:50;;;;;;;;;;;;;;;9.42;90.65;99958.34;7357297;19;19930;-63
2023/04/14 04:25:18;;;;;;;;;;;;;;;9.41;90.19;99956.69;7355904;19;19945;-63
2023/04/14 04:27:45;;;;;;;;;;;;;;;9.43;91.05;99952.09;7358453;19;19939;-62
2023/04/14 04:30:12;;;;;;;;;;;;;;;9.44;91.30;99949.31;7363107;19;20446;-63
2023/04/14 04:32:39;;;;;;;;;;;;;;;9.47;91.99;99944.72;7362267;19;19923;-61
2023/04/14 04:35:07;;;;;;;;;;;;;;;9.46;92.20;99943.88;7365849;19;20208;-60
2023/04/14 04:37:34;;;;;;;;;;;;;;;9.48;91.69;99951.59;7362739;19;20290;-63
2023/04/14 04:40:01;;;;;;;;;;;;;;;9.45;91.03;99948.31;7363373;19;19931;-64
2023/04/14 04:42:28;;;;;;;;;;;;;;;9.45;90.94;99940.44;7362972;19;19937;-63
2023/04/14 04:44:55;;;;;;;;;;;;;;;9.46;90.90;99946.50;7363468;19;19919;-61
2023/04/14 04:47:22;;;;;;;;;;;;;;;9.43;90.64;99939.81;7362395;19;19918;-60
2023/04/14 04:49:49;;;;;;;;;;;;;;;9.44;90.76;99944.06;7364708;19;19923;-62
2023/04/14 04:52:15;;;;;;;;;;;;;;;9.46;91.44;99943.88;7364337;19;20236;-61
2023/04/14 04:54:42;;;;;;;;;;;;;;;9.47;91.58;99942.91;7360313;19;19919;-63
2023/04/14 04:57:09;;;;;;;;;;;;;;;9.48;91.25;99944.56;7361985;19;19923;-64
2023/04/14 04:59:37;;;;;;;;;;;;;;;9.50;91.40;99941.78;7363627;19;20756;-63
2023/04/14 05:02:05;;;;;;;;;;;;;;;9.49;91.38;99942.75;7363301;19;20341;-62
2023/04/14 05:04:32;;;;;;;;;;;;;;;9.53;91.56;99947.50;7361245;19;20020;-63
2023/04/14 05:06:59;;;;;;;;;;;;;;;9.56;91.66;99933.19;7361416;19;19943;-63
2023/04/14 05:09:26;;;;;;;;;;;;;;;9.58;91.65;99934.69;7364806;19;19911;-61
2023/04/14 05:11:53;;;;;;;;;;;;;;;9.61;91.88;99942.22;7354836;19;19915;-62
2023/04/14 05:14:20;;;;;;;;;;;;;;;9.63;91.40;99940.25;7364743;19;19928;-62
2023/04/14 05:16:46;;;;;;;;;;;;;;;9.62;91.04;99935.97;7364374;19;20341;-63
2023/04/14 05:19:14;;;;;;;;;;;;;;;9.62;90.70;99938.59;7361047;19;20280;-63
2023/04/14 05:21:41;;;;;;;;;;;;;;;9.63;91.01;99935.00;7363772;19;19915;-62
2023/04/14 05:24:08;;;;;;;;;;;;;;;9.64;91.08;99938.44;7363483;19;19937;-62
2023/04/14 05:26:35;;;;;;;;;;;;;;;9.65;90.88;99932.19;7365744;19;20467;-63
2023/04/14 05:29:21;;;;;;;;;;;;;;;9.68;90.36;99930.06;7365525;19;19919;-63
2023/04/14 05:31:48;;;;;;;;;;;;;;;9.72;90.11;99925.25;7364847;19;21192;-63
2023/04/14 05:34:15;;;;;;;;;;;;;;;9.75;89.71;99930.19;7364523;19;20278;-61
2023/04/14 05:36:42;;;;;;;;;;;;;;;9.79;90.02;99919.19;7363866;19;19922;-65
2023/04/14 05:39:09;;;;;;;;;;;;;;;9.84;89.85;99916.84;7362291;19;19930;-63
2023/04/14 05:41:36;;;;;;;;;;;;;;;9.87;90.06;99923.56;7362146;19;20568;-63
2023/04/14 05:44:03;;;;;;;;;;;;;;;9.90;89.77;99925.88;7363840;19;19929;-61
2023/04/14 05:46:30;;;;;;;;;;;;;;;9.92;89.03;99923.06;7358970;19;19957;-62
2023/04/14 05:48:58;;;;;;;;;;;;;;;9.93;87.92;99924.69;7360855;19;19955;-62
2023/04/14 05:51:26;;;;;;;;;;;;;;;9.95;87.38;99918.28;7359512;19;19922;-63
2023/04/14 05:53:53;;;;;;;;;;;;;;;9.97;87.51;99915.47;7361447;19;20039;-61
2023/04/14 05:56:20;;;;;;;;;;;;;;;10.00;87.22;99915.97;7359881;19;19918;-63
2023/04/14 05:58:47;;;;;;;;;;;;;;;10.03;87.45;99910.34;7362057;19;19915;-63
2023/04/14 06:01:14;;;;;;;;;;;;;;;10.07;86.38;99911.66;7361763;19;19941;-63
2023/04/14 06:03:41;;;;;;;;;;;;;;;10.13;85.69;99918.03;7361055;19;19923;-62
2023/04/14 06:06:08;;;;;;;;;;;;;;;10.17;85.19;99911.47;7362058;19;19930;-62
2023/04/14 06:08:35;;;;;;;;;;;;;;;10.21;84.62;99915.38;7364380;19;20890;-63
2023/04/14 06:11:02;;;;;;;;;;;;;;;10.22;83.87;99911.75;7362665;19;19939;-63
2023/04/14 06:13:29;;;;;;;;;;;;;;;10.26;83.76;99907.78;7362459;19;19931;-63
2023/04/14 06:15:59;;;;;;;;;;;;;;;10.31;83.61;99902.81;7362159;19;19923;-63
2023/04/14 06:18:26;;;;;;;;;;;;;;;10.34;83.36;99902.50;7361379;19;19926;-64
2023/04/14 06:20:53;;;;;;;;;;;;;;;10.39;83.10;99894.91;7360719;19;20387;-61
2023/04/14 06:23:20;;;;;;;;;;;;;;;10.45;83.10;99902.09;7362373;19;20305;-63
2023/04/14 06:25:47;;;;;;;;;;;;;;;10.48;82.81;99896.47;7361314;19;19919;-63
2023/04/14 06:28:14;;;;;;;;;;;;;;;10.56;83.25;99895.63;7361568;19;19948;-63
2023/04/14 06:30:41;;;;;;;;;;;;;;;10.62;83.48;99898.34;7361781;19;19923;-62
2023/04/14 06:33:11;;;;;;;;;;;;;;;10.68;82.95;99900.28;7360105;19;19945;-62
2023/04/14 06:35:37;;;;;;;;;;;;;;;10.75;82.48;99894.31;7359903;19;19941;-63
2023/04/14 06:38:04;;;;;;;;;;;;;;;10.84;82.59;99899.31;7362073;19;19938;-62
2023/04/14 06:40:31;;;;;;;;;;;;;;;10.88;81.90;99895.34;7358092;19;20296;-61
2023/04/14 06:42:58;;;;;;;;;;;;;;;10.91;81.62;99902.88;7359548;19;19923;-63
2023/04/14 06:45:25;;;;;;;;;;;;;;;10.96;82.13;99897.09;7362727;19;19921;-60
2023/04/14 06:47:52;;;;;;;;;;;;;;;11.01;82.30;99890.28;7358781;19;19915;-63
2023/04/14 06:50:20;;;;;;;;;;;;;;;11.06;82.04;99898.47;7359903;19;20365;-62
2023/04/14 06:52:47;;;;;;;;;;;;;;;11.18;82.65;99895.38;7360446;19;19923;-61
2023/04/14 06:55:14;;;;;;;;;;;;;;;11.28;81.35;99888.03;7360644;19;19919;-62
2023/04/14 06:57:41;;;;;;;;;;;;;;;11.34;81.43;99897.84;7360689;19;19919;-61
2023/04/14 07:00:09;;;;;;;;;;;;;;;11.41;81.25;99881.16;7359802;19;19929;-63
2023/04/14 07:02:36;;;;;;;;;;;;;;;11.46;80.72;99891.16;7356090;19;19923;-61
2023/04/14 07:05:04;;;;;;;;;;;;;;;11.47;80.88;99890.16;7361769;19;20254;-60
2023/04/14 07:07:35;;;;;;;;;;;;;;;11.48;80.21;99889.13;7360958;19;19918;-62
2023/04/14 07:10:02;;;;;;;;;;;;;;;11.48;80.68;99881.22;7361071;19;20444;-62
2023/04/14 07:12:29;;;;;;;;;;;;;;;11.49;80.54;99886.31;7362078;19;20498;-61
2023/04/14 07:14:56;;;;;;;;;;;;;;;11.44;80.00;99878.16;7361461;19;19918;-61
2023/04/14 07:17:23;;;;;;;;;;;;;;;11.44;79.79;99879.97;7357866;19;20366;-63
2023/04/14 07:19:50;;;;;;;;;;;;;;;11.39;78.68;99877.88;7357102;19;20751;-62
2023/04/14 07:22:17;;;;;;;;;;;;;;;11.35;78.31;99883.69;7358157;19;20617;-60
2023/04/14 07:24:44;;;;;;;;;;;;;;;11.32;78.32;99890.16;7357396;19;19999;-62
2023/04/14 07:27:14;;;;;;;;;;;;;;;11.28;77.94;99888.03;7352343;19;19922;-62
2023/04/14 07:29:41;;;;;;;;;;;;;;;11.26;76.92;99884.78;7361096;19;20034;-61
2023/04/14 07:32:08;;;;;;;;;;;;;;;11.21;76.33;99882.69;7361388;19;20340;-62
2023/04/14 07:34:35;;;;;;;;;;;;;;;11.18;75.48;99875.13;7360420;19;19940;-64
2023/04/14 07:37:02;;;;;;;;;;;;;;;11.17;74.88;99876.16;7359176;19;20194;-62
2023/04/14 07:39:30;;;;;;;;;;;;;;;11.21;74.12;99881.88;7359607;19;19976;-62
2023/04/14 07:41:57;;;;;;;;;;;;;;;11.24;73.61;99877.06;7357793;19;19911;-62
2023/04/14 07:44:25;;;;;;;;;;;;;;;11.26;73.96;99874.25;7361351;19;19996;-62
2023/04/14 07:46:52;;;;;;;;;;;;;;;11.25;74.10;99878.69;7357270;19;20374;-62
2023/04/14 07:49:19;;;;;;;;;;;;;;;11.28;75.38;99880.97;7358781;19;20377;-61
2023/04/14 07:51:46;;;;;;;;;;;;;;;11.29;77.21;99879.97;7358426;19;20494;-61
2023/04/14 07:54:13;;;;;;;;;;;;;;;11.28;78.95;99873.06;7358671;19;20348;-62
2023/04/14 07:56:40;;;;;;;;;;;;;;;11.23;80.40;99878.06;7359266;19;20320;-62
2023/04/14 07:59:07;;;;;;;;;;;;;;;11.17;81.76;99870.06;7359216;19;20409;-61
2023/04/14 08:01:34;;;;;;;;;;;;;;;11.12;83.22;99860.88;7358666;19;19919;-62
2023/04/14 08:04:01;;;;;;;;;;;;;;;11.12;84.25;99865.34;7367907;19;19922;-63
2023/04/14 08:06:28;;;;;;;;;;;;;;;11.13;84.47;99862.53;7363345;19;20388;-62
2023/04/14 08:08:55;;;;;;;;;;;;;;;11.14;84.69;99866.78;7367436;19;19991;-61
2023/04/14 08:11:22;;;;;;;;;;;;;;;11.13;84.82;99856.44;7364518;19;20558;-62
2023/04/14 08:13:51;;;;;;;;;;;;;;;11.12;85.45;99860.09;7366725;19;19949;-60
2023/04/14 08:16:18;;;;;;;;;;;;;;;11.12;85.30;99860.88;7364904;19;20262;-62
2023/04/14 08:18:45;;;;;;;;;;;;;;;11.12;84.91;99858.25;7366707;19;19918;-61
2023/04/14 08:21:12;;;;;;;;;;;;;;;11.12;84.83;99852.97;7364853;19;20296;-61
2023/04/14 08:23:39;;;;;;;;;;;;;;;11.21;85.84;99848.47;7365613;19;19929;-61
2023/04/14 08:26:06;;;;;;;;;;;;;;;11.27;86.05;99860.91;7365695;19;19940;-61
2023/04/14 08:28:33;;;;;;;;;;;;;;;11.31;85.87;99853.47;7366086;19;20266;-63
2023/04/14 08:31:00;;;;;;;;;;;;;;;11.39;85.54;99850.72;7364253;19;19929;-61
2023/04/14 08:33:27;;;;;;;;;;;;;;;11.50;86.15;99843.19;7361607;19;19922;-61
2023/04/14 08:35:54;;;;;;;;;;;;;;;11.65;85.93;99850.25;7365199;19;19923;-62
2023/04/14 08:38:26;;;;;;;;;;;;;;;11.80;86.41;99848.44;7365302;19;19930;-61
2023/04/14 08:40:55;;;;;;;;;;;;;;;11.93;86.22;99853.88;7363579;19;19919;-61
2023/04/14 08:43:22;;;;;;;;;;;;;;;12.07;85.66;99852.19;7363979;19;19939;-62
2023/04/14 08:45:50;;;;;;;;;;;;;;;12.17;84.72;99848.25;7366679;19;19922;-63
2023/04/14 08:48:18;;;;;;;;;;;;;;;12.24;81.79;99846.47;7362816;19;19945;-61
2023/04/14 08:50:49;;;;;;;;;;;;;;;12.37;82.37;99849.25;7361631;19;19923;-62
2023/04/14 08:53:18;;;;;;;;;;;;;;;12.56;82.50;99857.53;7365506;19;20849;-61
2023/04/14 08:55:45;;;;;;;;;;;;;;;12.69;81.51;99855.03;7362467;19;19923;-60
2023/04/14 08:58:12;;;;;;;;;;;;;;;12.79;80.38;99850.25;7365087;19;20454;-62
2023/04/14 09:00:40;;;;;;;;;;;;;;;12.86;78.94;99857.19;7362581;19;19937;-63
2023/04/14 09:03:08;;;;;;;;;;;;;;;12.94;78.31;99852.78;7362706;19;19926;-64
2023/04/14 09:05:36;;;;;;;;;;;;;;;12.98;77.86;99841.63;7361753;19;20411;-61
2023/04/14 09:08:03;;;;;;;;;;;;;;;13.00;76.88;99852.84;7364249;19;19931;-60
2023/04/14 09:10:30;;;;;;;;;;;;;;;13.01;75.97;99854.44;7368181;19;19982;-62
2023/04/14 09:12:58;;;;;;;;;;;;;;;13.08;76.15;99850.03;7363396;19;19915;-61
2023/04/14 09:15:27;;;;;;;;;;;;;;;13.11;75.00;99860.25;7363237;19;20378;-61
2023/04/14 09:17:55;;;;;;;;;;;;;;;13.10;75.08;99850.69;7361587;19;19919;-64
2023/04/14 09:20:23;;;;;;;;;;;;;;;13.12;75.11;99846.03;7360996;19;19925;-61
2023/04/14 09:23:06;;;;;;;;;;;;;;;13.15;73.85;99853.59;7364384;19;19910;-62
2023/04/14 09:25:34;;;;;;;;;;;;;;;13.18;72.79;99855.81;7363710;19;19923;-63
2023/04/14 09:28:01;;;;;;;;;;;;;;;13.16;72.35;99852.56;7364465;19;20440;-60
2023/04/14 09:30:29;;;;;;;;;;;;;;;13.18;71.91;99850.53;7362783;19;19919;-63
2023/04/14 09:32:56;;;;;;;;;;;;;;;13.21;71.28;99859.88;7362185;19;19955;-62
2023/04/14 09:35:42;;;;;;;;;;;;;;;13.27;71.13;99852.00;7363817;19;19926;-61
2023/04/14 09:38:08;;;;;;;;;;;;;;;13.28;71.73;99858.94;7364167;19;19914;-63
2023/04/14 09:40:37;;;;;;;;;;;;;;;13.25;71.73;99854.06;7361590;19;20888;-61
2023/04/14 09:43:05;;;;;;;;;;;;;;;13.20;71.72;99853.81;7359239;19;20018;-62
2023/04/14 09:45:40;;;;;;;;;;;;;;;13.13;70.41;99858.22;7364438;19;20222;-63
2023/04/14 09:48:07;;;;;;;;;;;;;;;13.09;70.62;99856.97;7360880;19;20586;-62
2023/04/14 09:50:43;;;;;;;;;;;;;;;13.00;69.81;99850.19;7362828;19;19923;-61
2023/04/14 09:53:11;;;;;;;;;;;;;;;13.02;70.96;99847.34;7362860;19;19922;-63
2023/04/14 09:55:44;;;;;;;;;;;;;;;13.12;72.22;99858.41;7361353;19;19934;-62
2023/04/14 09:58:11;;;;;;;;;;;;;;;13.13;69.82;99860.88;7360820;19;19919;-63
2023/04/14 10:00:38;;;;;;;;;;;;;;;13.19;68.26;99854.00;7363338;19;19922;-63
2023/04/14 10:03:05;;;;;;;;;;;;;;;13.26;66.75;99860.94;7362974;19;19932;-63
2023/04/14 10:05:32;;;;;;;;;;;;;;;13.35;67.84;99855.53;7364448;19;20630;-63
2023/04/14 10:08:01;;;;;;;;;;;;;;;13.43;66.93;99845.59;7364107;19;20466;-61
2023/04/14 10:10:28;;;;;;;;;;;;;;;13.52;66.46;99841.78;7360415;19;19939;-62
2023/04/14 10:12:55;;;;;;;;;;;;;;;13.64;66.97;99845.50;7362879;19;19922;-60
2023/04/14 10:15:22;;;;;;;;;;;;;;;13.74;66.10;99853.06;7363006;19;19918;-62
2023/04/14 10:17:50;;;;;;;;;;;;;;;13.82;65.67;99852.88;7361943;19;19945;-61
2023/04/14 10:20:17;;;;;;;;;;;;;;;13.84;64.48;99844.75;7361968;19;19922;-60
2023/04/14 10:22:46;;;;;;;;;;;;;;;13.77;63.93;99851.84;7360291;19;20464;-63
2023/04/14 10:25:13;;;;;;;;;;;;;;;13.70;63.86;99855.28;7359858;19;19994;-62
2023/04/14 10:27:40;;;;;;;;;;;;;;;13.62;65.51;99871.31;7364005;19;19939;-63
2023/04/14 10:30:07;;;;;;;;;;;;;;;13.50;66.48;99885.28;7363658;19;20002;-61
2023/04/14 10:32:36;;;;;;;;;;;;;;;13.33;70.63;99895.34;7358346;19;19942;-62
2023/04/14 10:35:04;;;;;;;;;;;;;;;13.15;73.64;99887.91;7361326;19;19918;-61
2023/04/14 10:37:31;;;;;;;;;;;;;;;12.97;75.60;99884.91;7360205;19;20877;-61
2023/04/14 10:40:00;;;;;;;;;;;;;;;12.81;77.57;99882.53;7361167;19;19921;-60
2023/04/14 10:42:31;;;;;;;;;;;;;;;12.67;77.99;99881.59;7360500;19;19937;-62
2023/04/14 10:45:03;;;;;;;;;;;;;;;12.57;78.90;99886.38;7364853;19;19922;-62
2023/04/14 10:47:30;;;;;;;;;;;;;;;12.52;79.83;99885.31;7360908;19;19922;-62
2023/04/14 10:50:03;;;;;;;;;;;;;;;12.41;81.31;99884.00;7361029;19;20229;-63
2023/04/14 10:52:30;;;;;;;;;;;;;;;12.30;82.48;99879.22;7358912;19;20006;-61
2023/04/14 10:55:06;;;;;;;;;;;;;;;12.19;83.29;99885.78;7361026;19;20407;-61
2023/04/14 10:57:40;;;;;;;;;;;;;;;12.16;83.98;99888.81;7359393;19;19964;-60
2023/04/14 11:00:17;;;;;;;;;;;;;;;12.13;83.22;99885.72;7359962;19;19914;-59
2023/04/14 11:02:53;;;;;;;;;;;;;;;12.12;83.91;99877.00;7358822;19;19923;-61
2023/04/14 11:05:21;;;;;;;;;;;;;;;12.16;84.18;99883.53;7359407;19;19923;-58
2023/04/14 11:07:53;;;;;;;;;;;;;;;12.22;84.18;99874.88;7360336;19;19990;-61
2023/04/14 11:10:20;;;;;;;;;;;;;;;12.34;84.84;99883.13;7361946;19;20269;-60
2023/04/14 11:12:48;;;;;;;;;;;;;;;12.52;85.84;99878.22;7360923;19;19957;-61
2023/04/14 11:15:15;;;;;;;;;;;;;;;12.60;84.51;99875.44;7360806;19;20173;-61
2023/04/14 11:17:43;;;;;;;;;;;;;;;12.66;82.46;99881.78;7358463;19;19919;-63
2023/04/14 11:20:12;;;;;;;;;;;;;;;12.63;81.43;99876.91;7359824;19;19978;-60
2023/04/14 11:22:40;;;;;;;;;;;;;;;12.46;80.85;99884.25;7359348;19;19919;-61
2023/04/14 11:25:09;;;;;;;;;;;;;;;12.38;82.57;99887.00;7361736;19;19923;-62
2023/04/14 11:27:38;;;;;;;;;;;;;;;12.36;81.90;99881.91;7355874;19;19923;-61
2023/04/14 11:30:06;;;;;;;;;;;;;;;12.35;81.09;99885.56;7359531;19;19921;-64
2023/04/14 11:32:42;;;;;;;;;;;;;;;12.50;82.36;99882.03;7355595;19;21216;-61
2023/04/14 11:35:10;;;;;;;;;;;;;;;12.64;82.46;99881.19;7360234;19;19919;-63
2023/04/14 11:37:37;;;;;;;;;;;;;;;12.75;82.42;99875.34;7357648;19;20250;-61
2023/04/14 11:40:05;;;;;;;;;;;;;;;12.80;82.21;99881.72;7358822;19;19963;-63
2023/04/14 11:42:32;;;;;;;;;;;;;;;12.89;81.59;99876.31;7360229;19;19915;-63
2023/04/14 11:45:01;;;;;;;;;;;;;;;12.94;81.82;99882.66;7361445;19;19915;-60
2023/04/14 11:47:28;;;;;;;;;;;;;;;12.98;79.99;99880.44;7358973;19;19927;-60
2023/04/14 11:49:56;;;;;;;;;;;;;;;12.98;79.10;99870.69;7359474;19;19915;-61
2023/04/14 11:52:23;;;;;;;;;;;;;;;13.02;79.57;99868.47;7357443;19;20341;-61
2023/04/14 11:54:50;;;;;;;;;;;;;;;13.13;79.56;99870.63;7358470;19;19986;-61
2023/04/14 11:57:17;;;;;;;;;;;;;;;13.23;78.91;99871.91;7361512;19;20384;-63
2023/04/14 11:59:44;;;;;;;;;;;;;;;13.35;77.73;99881.94;7358937;19;19923;-62
2023/04/14 12:02:14;;;;;;;;;;;;;;;13.38;76.26;99882.38;7354802;19;20018;-62
2023/04/14 12:04:43;;;;;;;;;;;;;;;13.39;74.29;99870.78;7355802;19;19957;-62
2023/04/14 12:07:11;;;;;;;;;;;;;;;13.33;72.78;99876.84;7357862;19;19927;-61
2023/04/14 12:09:47;;;;;;;;;;;;;;;13.28;71.88;99877.44;7357683;19;19918;-60
2023/04/14 12:12:15;;;;;;;;;;;;;;;13.23;72.71;99874.56;7356549;19;19922;-62
2023/04/14 12:14:45;;;;;;;;;;;;;;;13.24;73.90;99870.09;7358481;19;20695;-61
2023/04/14 12:17:14;;;;;;;;;;;;;;;13.24;72.99;99857.69;7357754;19;20348;-61
2023/04/14 12:19:41;;;;;;;;;;;;;;;13.24;71.77;99872.72;7357280;19;19939;-61
2023/04/14 12:22:08;;;;;;;;;;;;;;;13.27;72.93;99862.56;7357185;19;19956;-60
2023/04/14 12:24:36;;;;;;;;;;;;;;;13.31;71.51;99863.00;7357679;19;19918;-63
2023/04/14 12:27:05;;;;;;;;;;;;;;;13.35;69.81;99863.44;7356730;19;19929;-62
2023/04/14 12:29:32;;;;;;;;;;;;;;;13.27;70.29;99854.66;7357084;19;19915;-63
2023/04/14 12:32:00;;;;;;;;;;;;;;;13.23;70.12;99860.53;7357239;19;19923;-60
2023/04/14 12:34:28;;;;;;;;;;;;;;;13.21;70.33;99871.28;7357022;19;19911;-62
2023/04/14 12:36:55;;;;;;;;;;;;;;;13.27;70.74;99861.75;7354820;19;19935;-62
2023/04/14 12:39:24;;;;;;;;;;;;;;;13.28;68.88;99869.50;7360240;19;20755;-62
2023/04/14 12:41:52;;;;;;;;;;;;;;;13.23;68.16;99873.72;7355017;19;19915;-63
2023/04/14 12:44:19;;;;;;;;;;;;;;;13.31;69.90;99872.78;7356972;19;20510;-62
2023/04/14 12:46:48;;;;;;;;;;;;;;;13.32;69.02;99869.91;7354048;19;19918;-63
2023/04/14 12:49:25;;;;;;;;;;;;;;;13.37;69.11;99869.34;7357984;19;19918;-63
2023/04/14 12:51:51;;;;;;;;;;;;;;;13.40;69.14;99863.69;7359180;19;19915;-62
2023/04/14 12:54:19;;;;;;;;;;;;;;;13.34;67.63;99854.69;7365180;19;19918;-61